Seavigour — 9HA4206 — position and weather

sailwx.info

Track history (hours):
 
Tides and Currents Weather Stations Pressure Air Temp Water Temp Dewpoint Dewpoint Depression Visibility Wind Speed Wind Dir Waves Ship Positions

Seavigour

Last reported at 2018-May-24 22:17 UTC. Time now 2018-May-25 01:27 UTC.
Position N 44°38' E 037°37'.

Length 274 m; draft 9.3 m.

Type: Tanker. MMSI: 249349000.

Date/timePositionNaut miles runAvg speedWind from/ knotsBaromVisibWave heightAir tempDewpointWater temp
2018-May-24 22:17N 44°38' E 037°37'0 0.0
2018-May-24 22:00N 44°38' E 037°36'1 1.8
2018-May-24 21:30N 44°37' E 037°35'2 3.1
2018-May-24 21:00N 44°36' E 037°37'1 1.6
2018-May-24 20:30N 44°36' E 037°38'1 1.1
2018-May-24 20:00N 44°35' E 037°38'2 4.3
2018-May-24 19:30N 44°33' E 037°39'0 0.2
2018-May-24 19:00N 44°33' E 037°39'0 0.1
2018-May-24 18:30N 44°33' E 037°39'0 0.1
2018-May-24 18:00N 44°33' E 037°39'0 0.1
2018-May-24 17:30N 44°33' E 037°39'0 0.2
2018-May-24 17:00N 44°33' E 037°39'0 0.3
2018-May-24 16:30N 44°33' E 037°39'0 0.3
2018-May-24 16:00N 44°33' E 037°39'0 0.3
2018-May-24 15:30N 44°32' E 037°39'0 0.3
2018-May-24 15:00N 44°32' E 037°38'0 0.3
2018-May-24 14:30N 44°32' E 037°39'0 0.5
2018-May-24 14:00N 44°32' E 037°39'0 0.6
2018-May-24 13:30N 44°32' E 037°39'11 2.5
2018-May-24 08:58N 44°35' E 037°54'0 0.0
2018-May-24 08:28N 44°35' E 037°54'0 0.0
2018-May-24 07:58N 44°35' E 037°54'0 0.0
2018-May-24 07:28N 44°35' E 037°54'0 0.0
2018-May-24 06:58N 44°35' E 037°54'0 0.0
2018-May-24 06:28N 44°35' E 037°54'0 0.0
2018-May-24 05:58N 44°35' E 037°54'0 0.0
2018-May-24 05:28N 44°35' E 037°54'0 0.0
2018-May-24 04:58N 44°35' E 037°54'0 0.0
2018-May-24 04:28N 44°35' E 037°54'0 0.0
2018-May-24 03:58N 44°35' E 037°54'0 0.0
2018-May-24 03:28N 44°35' E 037°54'0 0.0
2018-May-24 02:52N 44°35' E 037°54'0 0.0
2018-May-24 02:28N 44°35' E 037°54'0 0.0
2018-May-24 01:58N 44°35' E 037°54'0 0.0
2018-May-24 01:28N 44°35' E 037°54'0 0.0
2018-May-24 00:58N 44°35' E 037°54'0 0.0
2018-May-24 00:28N 44°35' E 037°54'0 0.1
2018-May-23 23:58N 44°35' E 037°54'0 0.0
2018-May-23 23:28N 44°35' E 037°54'0 0.0
2018-May-23 22:58N 44°35' E 037°54'0 0.0
2018-May-23 22:28N 44°35' E 037°54'0 0.0
2018-May-23 21:58N 44°35' E 037°54'0 0.1
2018-May-23 21:28N 44°35' E 037°54'0 0.1
2018-May-23 20:58N 44°35' E 037°54'0 0.0
2018-May-23 20:28N 44°35' E 037°54'0 0.0
2018-May-23 19:58N 44°35' E 037°54'0 0.0
2018-May-23 19:28N 44°35' E 037°54'0 0.1
2018-May-23 18:58N 44°35' E 037°54'0 0.0
2018-May-23 18:25N 44°35' E 037°54'0 0.0
2018-May-23 17:58N 44°35' E 037°54'0 0.0
2018-May-23 17:28N 44°35' E 037°54'0 0.0
2018-May-23 16:58N 44°35' E 037°54'0 0.0
2018-May-23 16:25N 44°35' E 037°54'0 0.0
2018-May-23 15:58N 44°35' E 037°54'0 0.0
2018-May-23 15:28N 44°35' E 037°54'0 0.0
2018-May-23 14:58N 44°35' E 037°54'0 0.0
2018-May-23 14:28N 44°35' E 037°54'0 0.0
2018-May-23 13:58N 44°35' E 037°54'0 0.0
2018-May-23 13:28N 44°35' E 037°54'0 0.0
2018-May-23 12:58N 44°35' E 037°54'0 0.0
2018-May-23 12:28N 44°35' E 037°54'0 0.0
2018-May-23 11:58N 44°35' E 037°54'0 0.0
2018-May-23 11:28N 44°35' E 037°54'0 0.0
2018-May-23 10:58N 44°35' E 037°54'0 0.0
2018-May-23 10:28N 44°35' E 037°54'0 0.0
2018-May-23 09:58N 44°35' E 037°54'0 0.0
2018-May-23 09:25N 44°35' E 037°54'0 0.1
2018-May-23 08:55N 44°35' E 037°54'0 0.1
2018-May-23 08:28N 44°35' E 037°54'0 0.1
2018-May-23 07:58N 44°35' E 037°54'0 0.0
2018-May-23 07:28N 44°35' E 037°54'0 0.1
2018-May-23 06:58N 44°35' E 037°54'0 0.0
2018-May-23 06:25N 44°35' E 037°54'0 0.0
2018-May-23 05:55N 44°35' E 037°54'0 0.1
2018-May-23 05:25N 44°35' E 037°54'0 0.0
2018-May-23 04:58N 44°35' E 037°54'0 0.1
2018-May-23 04:28N 44°35' E 037°54'0 0.0
2018-May-23 03:58N 44°35' E 037°54'0 0.1
2018-May-23 03:25N 44°35' E 037°54'0 0.1
2018-May-23 02:58N 44°35' E 037°54'0 0.1
2018-May-23 02:25N 44°35' E 037°54'0 0.0
2018-May-23 01:58N 44°35' E 037°54'0 0.0
2018-May-23 01:28N 44°35' E 037°54'0 0.0
2018-May-23 00:58N 44°35' E 037°54'0 0.0
2018-May-23 00:28N 44°35' E 037°54'0 0.2
2018-May-22 23:58N 44°35' E 037°54'0 0.0
2018-May-22 23:28N 44°35' E 037°54'0 0.0
2018-May-22 22:58N 44°35' E 037°54'0 0.1
2018-May-22 22:28N 44°35' E 037°54'0 0.1
2018-May-22 21:58N 44°35' E 037°54'0 0.1
2018-May-22 21:25N 44°35' E 037°54'0 0.0
2018-May-22 20:58N 44°35' E 037°54'0 0.1
2018-May-22 20:28N 44°35' E 037°54'0 0.0
2018-May-22 19:58N 44°35' E 037°54'0 0.0
2018-May-22 19:28N 44°35' E 037°54'0 0.0
2018-May-22 18:58N 44°35' E 037°54'0 0.1
2018-May-22 18:28N 44°35' E 037°54'0 0.0
2018-May-22 17:58N 44°35' E 037°54'0 0.0
2018-May-22 17:28N 44°35' E 037°54'0 0.0
2018-May-22 16:58N 44°35' E 037°54'0 0.0
2018-May-22 16:28N 44°35' E 037°54'0 0.0
2018-May-22 15:58N 44°35' E 037°54'0 0.0
2018-May-22 15:28N 44°35' E 037°54'0 0.0
2018-May-22 14:58N 44°35' E 037°54'0 0.0
2018-May-22 14:28N 44°35' E 037°54'0 0.0
2018-May-22 13:58N 44°35' E 037°54'0 0.0
2018-May-22 13:28N 44°35' E 037°54'0 0.0
2018-May-22 12:58N 44°35' E 037°54'0 0.1
2018-May-22 12:28N 44°35' E 037°54'0 0.3
2018-May-22 11:58N 44°35' E 037°54'0 0.1
2018-May-22 11:28N 44°35' E 037°54'0 0.0
2018-May-22 10:55N 44°35' E 037°54'0 0.0
2018-May-22 10:28N 44°35' E 037°54'0 0.0
2018-May-22 09:58N 44°35' E 037°54'0 0.1
2018-May-22 09:28N 44°35' E 037°54'0 0.1
2018-May-22 08:55N 44°35' E 037°54'0 0.1
2018-May-22 08:28N 44°35' E 037°54'0 0.0
2018-May-22 07:55N 44°35' E 037°54'0 0.0
2018-May-22 07:28N 44°35' E 037°54'0 0.0
2018-May-22 06:58N 44°35' E 037°54'0 0.0
2018-May-22 06:28N 44°35' E 037°54'0 0.0
2018-May-22 05:55N 44°35' E 037°54'0 0.0
2018-May-22 05:28N 44°35' E 037°54'0 0.0
2018-May-22 04:58N 44°35' E 037°54'0 0.0
2018-May-22 04:28N 44°35' E 037°54'0 0.0
2018-May-22 03:58N 44°35' E 037°54'0 0.0
2018-May-22 03:28N 44°35' E 037°54'0 0.0
2018-May-22 02:58N 44°35' E 037°54'0 0.0
2018-May-22 02:28N 44°35' E 037°54'0 0.0
2018-May-22 01:58N 44°35' E 037°54'0 0.0
2018-May-22 01:28N 44°35' E 037°54'0 0.0
2018-May-22 00:58N 44°35' E 037°54'0 0.0
2018-May-22 00:28N 44°35' E 037°54'0 0.0
2018-May-21 23:58N 44°35' E 037°54'0 0.0
2018-May-21 23:25N 44°35' E 037°54'0 0.0
2018-May-21 22:58N 44°35' E 037°54'0 0.0
2018-May-21 22:28N 44°35' E 037°54'0 0.0
2018-May-21 21:58N 44°35' E 037°54'0 0.0
2018-May-21 21:25N 44°35' E 037°54'0 0.0
2018-May-21 20:58N 44°35' E 037°54'0 0.0
2018-May-21 20:28N 44°35' E 037°54'0 0.0
2018-May-21 19:58N 44°35' E 037°54'0 0.0
2018-May-21 19:28N 44°35' E 037°54'0 0.0
2018-May-21 18:58N 44°35' E 037°54'0 0.0
2018-May-21 18:28N 44°35' E 037°54'0 0.0
2018-May-21 17:58N 44°35' E 037°54'0 0.0
2018-May-21 17:28N 44°35' E 037°54'0 0.0
2018-May-21 16:58N 44°35' E 037°54'0 0.0
2018-May-21 16:28N 44°35' E 037°54'0 0.0
2018-May-21 15:58N 44°35' E 037°54'0 0.0
2018-May-21 15:28N 44°35' E 037°54'0 0.0
2018-May-21 14:58N 44°35' E 037°54'0 0.0
2018-May-21 14:28N 44°35' E 037°54'0 0.0
2018-May-21 13:58N 44°35' E 037°54'0 0.0
2018-May-21 13:28N 44°35' E 037°54'0 0.0
2018-May-21 12:58N 44°35' E 037°54'0 0.1
2018-May-21 12:30N 44°35' E 037°54'0 0.1
2018-May-21 12:00N 44°35' E 037°54'1 1.4
2018-May-21 11:30N 44°35' E 037°53'2 4.7
2018-May-21 11:00N 44°36' E 037°50'3 5.9
2018-May-21 10:30N 44°37' E 037°46'1 1.9
2018-May-21 10:00N 44°37' E 037°45'0 0.7
2018-May-21 09:30N 44°36' E 037°44'0 0.8
2018-May-21 09:00N 44°36' E 037°44'0 0.6
2018-May-21 08:30N 44°36' E 037°44'0 0.6
2018-May-21 08:00N 44°36' E 037°43'1 2.7
2018-May-21 07:30N 44°35' E 037°42'3 6.4
2018-May-21 07:00N 44°32' E 037°39'4 7.9
2018-May-21 06:30N 44°29' E 037°35'4 7.7
2018-May-21 06:00N 44°27' E 037°32'2 3.6
2018-May-21 05:30N 44°25' E 037°31'0 0.4
2018-May-21 05:00N 44°25' E 037°31'0 0.4
2018-May-21 04:30N 44°25' E 037°31'0 0.4
2018-May-21 04:00N 44°25' E 037°31'0 0.5
2018-May-21 03:14N 44°26' E 037°32'0 1.8
2018-May-21 03:00N 44°26' E 037°32'2 4.0
2018-May-21 02:30N 44°27' E 037°34'3 6.9
2018-May-21 02:00N 44°29' E 037°38'3 5.4
2018-May-21 01:30N 44°31' E 037°41'5 9.1
2018-May-21 01:00N 44°27' E 037°38'511.0
2018-May-21 00:30N 44°24' E 037°31'611.1
2018-May-21 00:00N 44°22' E 037°24'511.0
2018-May-20 23:30N 44°20' E 037°17'610.9
2018-May-20 23:00N 44°17' E 037°10'  
2018-May-17 11:06N 44°16' E 028°47'0 0.9
2018-May-17 11:00N 44°16' E 028°47'  
Track history (hours):
 
Tides and Currents Weather Stations Pressure Air Temp Water Temp Dewpoint Dewpoint Depression Visibility Wind Speed Wind Dir Waves Ship Positions

Seavigour

Last reported at 2018-May-24 22:17 UTC. Time now 2018-May-25 01:27 UTC.
Position N 44°38' E 037°37'.

Length 274 m; draft 9.3 m.

Type: Tanker. MMSI: 249349000.

Date/timePositionNaut miles runAvg speedWind from/ knotsBaromVisibWave heightAir tempDewpointWater temp
2018-May-24 22:17N 44°38' E 037°37'0 0.0
2018-May-24 22:00N 44°38' E 037°36'1 1.8
2018-May-24 21:30N 44°37' E 037°35'2 3.1
2018-May-24 21:00N 44°36' E 037°37'1 1.6
2018-May-24 20:30N 44°36' E 037°38'1 1.1
2018-May-24 20:00N 44°35' E 037°38'2 4.3
2018-May-24 19:30N 44°33' E 037°39'0 0.2
2018-May-24 19:00N 44°33' E 037°39'0 0.1
2018-May-24 18:30N 44°33' E 037°39'0 0.1
2018-May-24 18:00N 44°33' E 037°39'0 0.1
2018-May-24 17:30N 44°33' E 037°39'0 0.2
2018-May-24 17:00N 44°33' E 037°39'0 0.3
2018-May-24 16:30N 44°33' E 037°39'0 0.3
2018-May-24 16:00N 44°33' E 037°39'0 0.3
2018-May-24 15:30N 44°32' E 037°39'0 0.3
2018-May-24 15:00N 44°32' E 037°38'0 0.3
2018-May-24 14:30N 44°32' E 037°39'0 0.5
2018-May-24 14:00N 44°32' E 037°39'0 0.6
2018-May-24 13:30N 44°32' E 037°39'11 2.5
2018-May-24 08:58N 44°35' E 037°54'0 0.0
2018-May-24 08:28N 44°35' E 037°54'0 0.0
2018-May-24 07:58N 44°35' E 037°54'0 0.0
2018-May-24 07:28N 44°35' E 037°54'0 0.0
2018-May-24 06:58N 44°35' E 037°54'0 0.0
2018-May-24 06:28N 44°35' E 037°54'0 0.0
2018-May-24 05:58N 44°35' E 037°54'0 0.0
2018-May-24 05:28N 44°35' E 037°54'0 0.0
2018-May-24 04:58N 44°35' E 037°54'0 0.0
2018-May-24 04:28N 44°35' E 037°54'0 0.0
2018-May-24 03:58N 44°35' E 037°54'0 0.0
2018-May-24 03:28N 44°35' E 037°54'0 0.0
2018-May-24 02:52N 44°35' E 037°54'0 0.0
2018-May-24 02:28N 44°35' E 037°54'0 0.0
2018-May-24 01:58N 44°35' E 037°54'0 0.0
2018-May-24 01:28N 44°35' E 037°54'0 0.0
2018-May-24 00:58N 44°35' E 037°54'0 0.0
2018-May-24 00:28N 44°35' E 037°54'0 0.1
2018-May-23 23:58N 44°35' E 037°54'0 0.0
2018-May-23 23:28N 44°35' E 037°54'0 0.0
2018-May-23 22:58N 44°35' E 037°54'0 0.0
2018-May-23 22:28N 44°35' E 037°54'0 0.0
2018-May-23 21:58N 44°35' E 037°54'0 0.1
2018-May-23 21:28N 44°35' E 037°54'0 0.1
2018-May-23 20:58N 44°35' E 037°54'0 0.0
2018-May-23 20:28N 44°35' E 037°54'0 0.0
2018-May-23 19:58N 44°35' E 037°54'0 0.0
2018-May-23 19:28N 44°35' E 037°54'0 0.1
2018-May-23 18:58N 44°35' E 037°54'0 0.0
2018-May-23 18:25N 44°35' E 037°54'0 0.0
2018-May-23 17:58N 44°35' E 037°54'0 0.0
2018-May-23 17:28N 44°35' E 037°54'0 0.0
2018-May-23 16:58N 44°35' E 037°54'0 0.0
2018-May-23 16:25N 44°35' E 037°54'0 0.0
2018-May-23 15:58N 44°35' E 037°54'0 0.0
2018-May-23 15:28N 44°35' E 037°54'0 0.0
2018-May-23 14:58N 44°35' E 037°54'0 0.0
2018-May-23 14:28N 44°35' E 037°54'0 0.0
2018-May-23 13:58N 44°35' E 037°54'0 0.0
2018-May-23 13:28N 44°35' E 037°54'0 0.0
2018-May-23 12:58N 44°35' E 037°54'0 0.0
2018-May-23 12:28N 44°35' E 037°54'0 0.0
2018-May-23 11:58N 44°35' E 037°54'0 0.0
2018-May-23 11:28N 44°35' E 037°54'0 0.0
2018-May-23 10:58N 44°35' E 037°54'0 0.0
2018-May-23 10:28N 44°35' E 037°54'0 0.0
2018-May-23 09:58N 44°35' E 037°54'0 0.0
2018-May-23 09:25N 44°35' E 037°54'0 0.1
2018-May-23 08:55N 44°35' E 037°54'0 0.1
2018-May-23 08:28N 44°35' E 037°54'0 0.1
2018-May-23 07:58N 44°35' E 037°54'0 0.0
2018-May-23 07:28N 44°35' E 037°54'0 0.1
2018-May-23 06:58N 44°35' E 037°54'0 0.0
2018-May-23 06:25N 44°35' E 037°54'0 0.0
2018-May-23 05:55N 44°35' E 037°54'0 0.1
2018-May-23 05:25N 44°35' E 037°54'0 0.0
2018-May-23 04:58N 44°35' E 037°54'0 0.1
2018-May-23 04:28N 44°35' E 037°54'0 0.0
2018-May-23 03:58N 44°35' E 037°54'0 0.1
2018-May-23 03:25N 44°35' E 037°54'0 0.1
2018-May-23 02:58N 44°35' E 037°54'0 0.1
2018-May-23 02:25N 44°35' E 037°54'0 0.0
2018-May-23 01:58N 44°35' E 037°54'0 0.0
2018-May-23 01:28N 44°35' E 037°54'0 0.0
2018-May-23 00:58N 44°35' E 037°54'0 0.0
2018-May-23 00:28N 44°35' E 037°54'0 0.2
2018-May-22 23:58N 44°35' E 037°54'0 0.0
2018-May-22 23:28N 44°35' E 037°54'0 0.0
2018-May-22 22:58N 44°35' E 037°54'0 0.1
2018-May-22 22:28N 44°35' E 037°54'0 0.1
2018-May-22 21:58N 44°35' E 037°54'0 0.1
2018-May-22 21:25N 44°35' E 037°54'0 0.0
2018-May-22 20:58N 44°35' E 037°54'0 0.1
2018-May-22 20:28N 44°35' E 037°54'0 0.0
2018-May-22 19:58N 44°35' E 037°54'0 0.0
2018-May-22 19:28N 44°35' E 037°54'0 0.0
2018-May-22 18:58N 44°35' E 037°54'0 0.1
2018-May-22 18:28N 44°35' E 037°54'0 0.0
2018-May-22 17:58N 44°35' E 037°54'0 0.0
2018-May-22 17:28N 44°35' E 037°54'0 0.0
2018-May-22 16:58N 44°35' E 037°54'0 0.0
2018-May-22 16:28N 44°35' E 037°54'0 0.0
2018-May-22 15:58N 44°35' E 037°54'0 0.0
2018-May-22 15:28N 44°35' E 037°54'0 0.0
2018-May-22 14:58N 44°35' E 037°54'0 0.0
2018-May-22 14:28N 44°35' E 037°54'0 0.0
2018-May-22 13:58N 44°35' E 037°54'0 0.0
2018-May-22 13:28N 44°35' E 037°54'0 0.0
2018-May-22 12:58N 44°35' E 037°54'0 0.1
2018-May-22 12:28N 44°35' E 037°54'0 0.3
2018-May-22 11:58N 44°35' E 037°54'0 0.1
2018-May-22 11:28N 44°35' E 037°54'0 0.0
2018-May-22 10:55N 44°35' E 037°54'0 0.0
2018-May-22 10:28N 44°35' E 037°54'0 0.0
2018-May-22 09:58N 44°35' E 037°54'0 0.1
2018-May-22 09:28N 44°35' E 037°54'0 0.1
2018-May-22 08:55N 44°35' E 037°54'0 0.1
2018-May-22 08:28N 44°35' E 037°54'0 0.0
2018-May-22 07:55N 44°35' E 037°54'0 0.0
2018-May-22 07:28N 44°35' E 037°54'0 0.0
2018-May-22 06:58N 44°35' E 037°54'0 0.0
2018-May-22 06:28N 44°35' E 037°54'0 0.0
2018-May-22 05:55N 44°35' E 037°54'0 0.0
2018-May-22 05:28N 44°35' E 037°54'0 0.0
2018-May-22 04:58N 44°35' E 037°54'0 0.0
2018-May-22 04:28N 44°35' E 037°54'0 0.0
2018-May-22 03:58N 44°35' E 037°54'0 0.0
2018-May-22 03:28N 44°35' E 037°54'0 0.0
2018-May-22 02:58N 44°35' E 037°54'0 0.0
2018-May-22 02:28N 44°35' E 037°54'0 0.0
2018-May-22 01:58N 44°35' E 037°54'0 0.0
2018-May-22 01:28N 44°35' E 037°54'0 0.0
2018-May-22 00:58N 44°35' E 037°54'0 0.0
2018-May-22 00:28N 44°35' E 037°54'0 0.0
2018-May-21 23:58N 44°35' E 037°54'0 0.0
2018-May-21 23:25N 44°35' E 037°54'0 0.0
2018-May-21 22:58N 44°35' E 037°54'0 0.0
2018-May-21 22:28N 44°35' E 037°54'0 0.0
2018-May-21 21:58N 44°35' E 037°54'0 0.0
2018-May-21 21:25N 44°35' E 037°54'0 0.0
2018-May-21 20:58N 44°35' E 037°54'0 0.0
2018-May-21 20:28N 44°35' E 037°54'0 0.0
2018-May-21 19:58N 44°35' E 037°54'0 0.0
2018-May-21 19:28N 44°35' E 037°54'0 0.0
2018-May-21 18:58N 44°35' E 037°54'0 0.0
2018-May-21 18:28N 44°35' E 037°54'0 0.0
2018-May-21 17:58N 44°35' E 037°54'0 0.0
2018-May-21 17:28N 44°35' E 037°54'0 0.0
2018-May-21 16:58N 44°35' E 037°54'0 0.0
2018-May-21 16:28N 44°35' E 037°54'0 0.0
2018-May-21 15:58N 44°35' E 037°54'0 0.0
2018-May-21 15:28N 44°35' E 037°54'0 0.0
2018-May-21 14:58N 44°35' E 037°54'0 0.0
2018-May-21 14:28N 44°35' E 037°54'0 0.0
2018-May-21 13:58N 44°35' E 037°54'0 0.0
2018-May-21 13:28N 44°35' E 037°54'0 0.0
2018-May-21 12:58N 44°35' E 037°54'0 0.1
2018-May-21 12:30N 44°35' E 037°54'0 0.1
2018-May-21 12:00N 44°35' E 037°54'1 1.4
2018-May-21 11:30N 44°35' E 037°53'2 4.7
2018-May-21 11:00N 44°36' E 037°50'3 5.9
2018-May-21 10:30N 44°37' E 037°46'1 1.9
2018-May-21 10:00N 44°37' E 037°45'0 0.7
2018-May-21 09:30N 44°36' E 037°44'0 0.8
2018-May-21 09:00N 44°36' E 037°44'0 0.6
2018-May-21 08:30N 44°36' E 037°44'0 0.6
2018-May-21 08:00N 44°36' E 037°43'1 2.7
2018-May-21 07:30N 44°35' E 037°42'3 6.4
2018-May-21 07:00N 44°32' E 037°39'4 7.9
2018-May-21 06:30N 44°29' E 037°35'4 7.7
2018-May-21 06:00N 44°27' E 037°32'2 3.6
2018-May-21 05:30N 44°25' E 037°31'0 0.4
2018-May-21 05:00N 44°25' E 037°31'0 0.4
2018-May-21 04:30N 44°25' E 037°31'0 0.4
2018-May-21 04:00N 44°25' E 037°31'0 0.5
2018-May-21 03:14N 44°26' E 037°32'0 1.8
2018-May-21 03:00N 44°26' E 037°32'2 4.0
2018-May-21 02:30N 44°27' E 037°34'3 6.9
2018-May-21 02:00N 44°29' E 037°38'3 5.4
2018-May-21 01:30N 44°31' E 037°41'5 9.1
2018-May-21 01:00N 44°27' E 037°38'511.0
2018-May-21 00:30N 44°24' E 037°31'611.1
2018-May-21 00:00N 44°22' E 037°24'511.0
2018-May-20 23:30N 44°20' E 037°17'610.9
2018-May-20 23:00N 44°17' E 037°10'  
2018-May-17 11:06N 44°16' E 028°47'0 0.9
2018-May-17 11:00N 44°16' E 028°47'  

Dump ship's entire track history